createdAt,value
2019-04-22T00:02:17.505Z,99362.48
2019-04-22T00:05:01.004Z,99358.72
2019-04-22T00:07:41.975Z,99363.08
2019-04-22T00:10:20.852Z,99355.40
2019-04-22T00:12:49.992Z,99358.70
2019-04-22T00:15:09.778Z,99348.31
2019-04-22T00:17:55.095Z,99344.89
2019-04-22T00:20:35.471Z,99344.06
2019-04-22T00:22:52.568Z,99342.77
2019-04-22T00:27:56.467Z,99342.06
2019-04-22T00:30:36.043Z,99343.02
2019-04-22T00:33:01.409Z,99343.22
2019-04-22T00:35:31.819Z,99338.27
2019-04-22T00:38:03.469Z,99328.11
2019-04-22T00:40:38.413Z,99322.53
2019-04-22T00:43:10.061Z,99323.59
2019-04-22T00:45:38.720Z,99322.40
2019-04-22T00:48:12.500Z,99319.86
2019-04-22T00:50:40.225Z,99316.17
2019-04-22T00:53:09.900Z,99309.13
2019-04-22T00:56:00.534Z,99311.11
2019-04-22T00:58:39.457Z,99311.47
2019-04-22T01:01:07.867Z,99307.58
2019-04-22T01:03:44.194Z,99310.98
2019-04-22T01:06:12.284Z,99307.80
2019-04-22T01:08:46.878Z,99307.33
2019-04-22T01:11:13.449Z,99311.09
2019-04-22T01:13:39.743Z,99305.55
2019-04-22T01:16:15.322Z,99296.94
2019-04-22T01:18:42.306Z,99291.94
2019-04-22T01:21:24.391Z,99292.41
2019-04-22T01:23:44.190Z,99293.83
2019-04-22T01:26:11.297Z,99290.77
2019-04-22T01:28:39.550Z,99292.17
2019-04-22T01:31:04.730Z,99291.80
2019-04-22T01:33:35.296Z,99296.29
2019-04-22T01:36:21.420Z,99291.47
2019-04-22T01:38:53.229Z,99285.95
2019-04-22T01:41:32.437Z,99287.59
2019-04-22T01:44:08.293Z,99279.28
2019-04-22T01:46:33.047Z,99275.72
2019-04-22T01:49:02.679Z,99280.64
2019-04-22T01:51:50.024Z,99281.10
2019-04-22T01:54:03.946Z,99279.08
2019-04-22T01:56:33.349Z,99279.86
2019-04-22T01:58:59.202Z,99277.41
2019-04-22T02:01:37.420Z,99275.13
2019-04-22T02:04:08.795Z,99280.33
2019-04-22T02:06:43.605Z,99277.13
2019-04-22T02:09:21.148Z,99268.94
2019-04-22T02:11:46.560Z,99264.13
2019-04-22T02:14:13.276Z,99273.20
2019-04-22T02:16:41.262Z,99272.27
2019-04-22T02:19:19.062Z,99260.94
2019-04-22T02:21:42.866Z,99246.78
2019-04-22T02:24:18.064Z,99250.17
2019-04-22T02:26:58.211Z,99248.78
2019-04-22T02:29:16.393Z,99243.83
2019-04-22T02:31:51.052Z,99239.67
2019-04-22T02:34:22.330Z,99231.26
2019-04-22T02:36:50.881Z,99235.55
2019-04-22T02:41:54.824Z,99239.66
2019-04-22T02:51:52.574Z,99239.63
2019-04-22T02:54:41.839Z,99240.55
2019-04-22T02:57:03.206Z,99234.06
2019-04-22T02:59:32.544Z,99218.06
2019-04-22T03:02:23.452Z,99219.42
2019-04-22T03:04:28.371Z,99219.50
2019-04-22T03:06:55.602Z,99216.69
2019-04-22T03:17:25.524Z,99211.35
2019-04-22T03:19:59.201Z,99206.89
2019-04-22T03:27:21.923Z,99202.33
2019-04-22T03:33:06.494Z,99194.50
2019-04-22T03:35:33.181Z,99192.77
2019-04-22T03:37:49.223Z,99194.25
2019-04-22T03:42:52.193Z,99192.44
2019-04-22T03:52:50.191Z,99186.73
2019-04-22T03:55:18.098Z,99183.41
2019-04-22T03:57:50.062Z,99177.16
2019-04-22T04:00:26.524Z,99177.19
2019-04-22T04:02:53.893Z,99180.19
2019-04-22T04:05:33.943Z,99179.20
2019-04-22T04:07:55.205Z,99168.70
2019-04-22T04:10:37.754Z,99175.95
2019-04-22T04:12:56.541Z,99178.66
2019-04-22T04:15:28.389Z,99173.41
2019-04-22T04:20:28.745Z,99170.05
2019-04-22T04:28:24.271Z,99162.02
2019-04-22T04:30:36.136Z,99161.78
2019-04-22T04:50:38.533Z,99155.05
2019-04-22T04:53:12.445Z,99154.69
2019-04-22T04:55:42.673Z,99155.23
2019-04-22T04:58:25.188Z,99154.19
2019-04-22T05:03:20.592Z,99147.98
2019-04-22T05:05:47.588Z,99147.80
2019-04-22T05:08:29.340Z,99145.75
2019-04-22T05:13:39.383Z,99144.45
2019-04-22T05:16:03.167Z,99137.64
2019-04-22T05:23:25.516Z,99115.52
2019-04-22T05:25:54.537Z,99127.21
2019-04-22T05:28:17.848Z,99126.38
2019-04-22T05:30:45.725Z,99129.47
2019-04-22T05:33:21.438Z,99125.49
2019-04-22T05:35:54.793Z,99127.20
2019-04-22T05:38:30.236Z,99119.96
2019-04-22T05:41:00.532Z,99125.63
2019-04-22T05:43:21.604Z,99118.32
2019-04-22T05:45:58.926Z,99115.77
2019-04-22T05:48:34.970Z,99120.02
2019-04-22T05:50:57.687Z,99120.74
2019-04-22T05:53:25.965Z,99120.66
2019-04-22T05:56:07.800Z,99116.38
2019-04-22T05:58:41.499Z,99107.73
2019-04-22T06:03:47.895Z,99104.13
2019-04-22T06:06:15.096Z,99103.20
2019-04-22T06:08:48.567Z,99096.84
2019-04-22T06:11:24.442Z,99093.75
2019-04-22T06:13:38.958Z,99094.37
2019-04-22T06:16:23.654Z,99095.83
2019-04-22T06:18:56.836Z,99088.55
2019-04-22T06:21:31.196Z,99094.39
2019-04-22T06:29:01.390Z,99090.81
2019-04-22T06:31:32.747Z,99084.06
2019-04-22T06:34:02.566Z,99089.25
2019-04-22T06:39:03.874Z,99088.06
2019-04-22T06:41:34.889Z,99075.94
2019-04-22T06:44:04.376Z,99078.45
2019-04-22T06:46:38.458Z,99077.11
2019-04-22T06:49:11.108Z,99073.78
2019-04-22T06:51:40.204Z,99067.52
2019-04-22T06:54:07.653Z,99076.71
2019-04-22T06:56:35.306Z,99063.60
2019-04-22T06:59:11.629Z,99066.59
2019-04-22T07:01:59.309Z,99065.91
2019-04-22T07:04:09.292Z,99059.09
2019-04-22T07:11:48.267Z,99052.15
2019-04-22T07:14:09.273Z,99046.56
2019-04-22T07:16:43.262Z,99046.41
2019-04-22T07:19:18.074Z,99049.70
2019-04-22T07:21:44.129Z,99034.66
2019-04-22T07:26:54.553Z,99031.48
2019-04-22T07:29:20.619Z,99027.03
2019-04-22T07:31:55.686Z,99035.45
2019-04-22T07:34:28.372Z,99033.38
2019-04-22T07:37:02.981Z,99026.50
2019-04-22T07:39:23.131Z,99022.83
2019-04-22T07:41:59.168Z,99021.03
2019-04-22T07:47:07.788Z,99020.38
2019-04-22T07:49:35.002Z,99021.48
2019-04-22T07:51:55.839Z,99012.95
2019-04-22T07:54:39.719Z,99006.36
2019-04-22T07:57:11.700Z,99008.05
2019-04-22T07:59:35.298Z,99004.86
2019-04-22T08:02:02.145Z,99000.05
2019-04-22T08:04:56.014Z,98994.12
2019-04-22T08:07:12.401Z,98991.98
2019-04-22T08:09:44.560Z,98997.22
2019-04-22T08:12:02.923Z,98999.61
2019-04-22T08:14:40.912Z,98989.41
2019-04-22T08:17:30.864Z,98984.31
2019-04-22T08:19:42.025Z,98986.36
2019-04-22T08:22:11.873Z,98982.17
2019-04-22T08:24:51.295Z,98971.91
2019-04-22T08:27:11.948Z,98982.28
2019-04-22T08:29:52.376Z,98968.23
2019-04-22T08:32:14.578Z,98969.58
2019-04-22T08:34:43.610Z,98972.69
2019-04-22T08:37:41.467Z,98969.12
2019-04-22T08:39:49.998Z,98957.45
2019-04-22T08:42:27.080Z,98949.61
2019-04-22T08:45:09.418Z,98954.11
2019-04-22T08:47:29.102Z,98947.58
2019-04-22T08:49:56.903Z,98949.73
2019-04-22T08:55:01.882Z,98936.77
2019-04-22T08:57:40.806Z,98939.45
2019-04-22T08:59:57.444Z,98924.99
2019-04-22T09:04:53.738Z,98932.44
2019-04-22T09:12:46.715Z,98918.72
2019-04-22T09:14:57.820Z,98915.58
2019-04-22T09:17:47.886Z,98903.14
2019-04-22T09:20:04.663Z,98901.17
2019-04-22T09:22:33.280Z,98902.02
2019-04-22T09:25:03.726Z,98904.11
2019-04-22T09:27:38.287Z,98894.41
2019-04-22T09:30:10.317Z,98882.98
2019-04-22T09:32:38.678Z,98882.53
2019-04-22T09:35:25.412Z,98874.94
2019-04-22T09:37:50.305Z,98871.62
2019-04-22T09:40:22.440Z,98871.98
2019-04-22T09:42:43.726Z,98865.27
2019-04-22T09:45:13.063Z,98863.05
2019-04-22T09:47:55.295Z,98869.73
2019-04-22T09:50:15.060Z,98854.45
2019-04-22T09:52:51.625Z,98856.11
2019-04-22T09:55:19.742Z,98859.51
2019-04-22T09:57:46.050Z,98834.81
2019-04-22T10:00:13.834Z,98834.45
2019-04-22T10:02:59.217Z,98834.00
2019-04-22T10:05:21.107Z,98840.83
2019-04-22T10:07:54.407Z,98827.67
2019-04-22T10:10:20.495Z,98819.47
2019-04-22T10:13:12.316Z,98820.70
2019-04-22T10:15:26.729Z,98821.98
2019-04-22T10:17:58.047Z,98816.56
2019-04-22T10:20:26.953Z,98811.50
2019-04-22T10:22:58.769Z,98803.88
2019-04-22T10:25:29.856Z,98799.44
2019-04-22T10:28:01.840Z,98796.85
2019-04-22T10:30:39.180Z,98793.04
2019-04-22T10:33:02.046Z,98786.73
2019-04-22T10:35:17.139Z,98777.40
2019-04-22T10:37:42.816Z,98780.11
2019-04-22T10:40:28.060Z,98771.52
2019-04-22T10:42:57.252Z,98774.44
2019-04-22T10:45:27.991Z,98767.75
2019-04-22T10:47:58.367Z,98765.39
2019-04-22T10:50:39.426Z,98757.32
2019-04-22T10:53:11.118Z,98749.44
2019-04-22T10:55:43.460Z,98743.91
2019-04-22T10:58:12.833Z,98738.45
2019-04-22T11:00:42.921Z,98743.91
2019-04-22T11:03:14.036Z,98746.50
2019-04-22T11:05:44.300Z,98739.51
2019-04-22T11:08:22.539Z,98725.16
2019-04-22T11:11:03.604Z,98728.63
2019-04-22T11:13:15.925Z,98730.77
2019-04-22T11:15:46.643Z,98723.84
2019-04-22T11:18:17.702Z,98723.41
2019-04-22T11:20:49.537Z,98725.96
2019-04-22T11:23:18.963Z,98722.16
2019-04-22T11:25:48.136Z,98715.34
2019-04-22T11:28:17.968Z,98711.35
2019-04-22T11:30:48.223Z,98711.47
2019-04-22T11:33:18.406Z,98707.13
2019-04-22T11:35:48.026Z,98701.16
2019-04-22T11:38:17.404Z,98699.43
2019-04-22T11:40:51.744Z,98694.08
2019-04-22T11:43:17.488Z,98692.37
2019-04-22T11:45:47.137Z,98691.59
2019-04-22T11:48:17.619Z,98683.09
2019-04-22T11:50:48.109Z,98691.17
2019-04-22T11:53:18.639Z,98687.73
2019-04-22T11:55:49.046Z,98664.91
2019-04-22T11:58:21.162Z,98664.77
2019-04-22T12:00:50.114Z,98652.64
2019-04-22T12:03:21.043Z,98650.47
2019-04-22T12:05:50.358Z,98651.83
2019-04-22T12:08:20.811Z,98650.53
2019-04-22T12:10:54.854Z,98643.16
2019-04-22T12:13:21.863Z,98633.62
2019-04-22T12:15:51.277Z,98635.25
2019-04-22T12:18:22.877Z,98634.56
2019-04-22T12:20:53.094Z,98633.49
2019-04-22T12:23:23.145Z,98615.55
2019-04-22T12:26:01.288Z,98620.13
2019-04-22T12:28:23.320Z,98628.09
2019-04-22T12:30:53.519Z,98618.79
2019-04-22T12:33:23.481Z,98611.29
2019-04-22T12:35:52.877Z,98603.80
2019-04-22T12:38:22.248Z,98601.09
2019-04-22T12:40:58.519Z,98593.61
2019-04-22T12:43:24.574Z,98593.16
2019-04-22T12:45:54.292Z,98592.53
2019-04-22T12:48:23.583Z,98594.09
2019-04-22T12:50:56.250Z,98584.12
2019-04-22T12:53:27.489Z,98570.97
2019-04-22T12:55:55.476Z,98573.38
2019-04-22T12:58:25.655Z,98572.83
2019-04-22T13:00:54.859Z,98568.55
2019-04-22T13:03:24.492Z,98566.45
2019-04-22T13:05:53.995Z,98568.55
2019-04-22T13:08:23.560Z,98568.59
2019-04-22T13:10:59.366Z,98560.90
2019-04-22T13:13:25.102Z,98551.66
2019-04-22T13:15:55.045Z,98549.45
2019-04-22T13:18:35.476Z,98540.38
2019-04-22T13:20:56.671Z,98541.32
2019-04-22T13:23:27.549Z,98535.05
2019-04-22T13:25:56.827Z,98532.45
2019-04-22T13:28:27.219Z,98539.55
2019-04-22T13:30:58.501Z,98524.19
2019-04-22T13:33:28.686Z,98516.38
2019-04-22T13:35:59.326Z,98504.47
2019-04-22T13:38:29.131Z,98502.39
2019-04-22T13:41:14.046Z,98496.19
2019-04-22T13:43:29.203Z,98496.06
2019-04-22T13:45:58.504Z,98491.62
2019-04-22T13:48:47.053Z,98484.57
2019-04-22T13:51:32.433Z,98479.08
2019-04-22T13:54:30.087Z,98477.11
2019-04-22T13:56:19.470Z,98473.67
2019-04-22T13:58:44.736Z,98475.08
2019-04-22T14:01:06.966Z,98468.63
2019-04-22T14:03:54.553Z,98468.67
2019-04-22T14:06:25.063Z,98468.27
2019-04-22T14:08:55.674Z,98464.77
2019-04-22T14:11:34.445Z,98462.47
2019-04-22T14:13:56.734Z,98463.90
2019-04-22T14:16:27.017Z,98464.41
2019-04-22T14:18:56.229Z,98464.24
2019-04-22T14:21:25.419Z,98461.74
2019-04-22T14:23:56.356Z,98456.61
2019-04-22T14:26:27.085Z,98450.17
2019-04-22T14:28:57.535Z,98443.72
2019-04-22T14:31:26.892Z,98453.36
2019-04-22T14:34:01.032Z,98448.77
2019-04-22T14:36:27.551Z,98446.44
2019-04-22T14:38:57.781Z,98438.27
2019-04-22T14:41:40.321Z,98436.38
2019-04-22T14:44:56.642Z,98423.87
2019-04-22T14:46:58.673Z,98420.38
2019-04-22T14:49:24.078Z,98415.83
2019-04-22T14:52:02.068Z,98411.22
2019-04-22T14:54:19.453Z,98412.01
2019-04-22T14:56:34.144Z,98400.34
2019-04-22T14:59:04.996Z,98395.48
2019-04-22T15:01:35.303Z,98389.78
2019-04-22T15:04:05.492Z,98393.66
2019-04-22T15:06:36.107Z,98393.11
2019-04-22T15:09:08.023Z,98383.08
2019-04-22T15:11:52.563Z,98382.67
2019-04-22T15:14:09.642Z,98384.28
2019-04-22T15:16:57.168Z,98389.02
2019-04-22T15:19:38.002Z,98382.14
2019-04-22T15:22:08.445Z,98382.14
2019-04-22T15:24:38.783Z,98358.91
2019-04-22T15:27:08.756Z,98366.70
2019-04-22T15:29:39.071Z,98369.79
2019-04-22T15:32:09.348Z,98361.34
2019-04-22T15:34:39.526Z,98373.05
2019-04-22T15:37:08.929Z,98358.95
2019-04-22T15:39:39.445Z,98362.27
2019-04-22T15:42:14.586Z,98358.88
2019-04-22T15:44:40.023Z,98355.55
2019-04-22T15:47:09.353Z,98359.83
2019-04-22T15:49:39.987Z,98356.34
2019-04-22T15:52:10.419Z,98346.53
2019-04-22T15:54:39.788Z,98340.06
2019-04-22T15:57:08.992Z,98337.56
2019-04-22T15:59:53.785Z,98341.80
2019-04-22T16:02:10.048Z,98345.61
2019-04-22T16:04:41.143Z,98336.95
2019-04-22T16:07:10.893Z,98333.19
2019-04-22T16:09:41.621Z,98337.68
2019-04-22T16:12:19.430Z,98336.31
2019-04-22T16:14:47.360Z,98333.54
2019-04-22T16:17:12.850Z,98330.61
2019-04-22T16:19:43.273Z,98333.05
2019-04-22T16:22:18.266Z,98326.53
2019-04-22T16:24:56.270Z,98324.17
2019-04-22T16:27:26.868Z,98320.67
2019-04-22T16:29:57.181Z,98325.10
2019-04-22T22:39:07.546Z,98201.72
2019-04-22T22:41:27.933Z,98210.15
2019-04-22T22:44:06.959Z,98199.11
2019-04-22T22:46:37.398Z,98197.16
2019-04-22T22:49:23.348Z,98197.22
2019-04-22T22:51:57.607Z,98192.84
2019-04-22T22:54:26.956Z,98195.53
2019-04-22T22:57:01.968Z,98199.55
2019-04-22T22:59:27.655Z,98194.56
2019-04-22T23:01:54.579Z,98192.00
2019-04-22T23:04:32.958Z,98190.69
2019-04-22T23:07:09.355Z,98191.41
2019-04-22T23:09:33.415Z,98197.73
2019-04-22T23:14:32.706Z,98196.85
2019-04-22T23:16:52.903Z,98188.59
2019-04-22T23:19:15.488Z,98188.82
2019-04-22T23:21:49.475Z,98181.83
2019-04-22T23:24:48.187Z,98189.69
2019-04-22T23:27:26.220Z,98183.88
2019-04-22T23:30:15.938Z,98177.06
2019-04-22T23:32:58.120Z,98184.84
2019-04-22T23:35:49.388Z,98174.70
2019-04-22T23:38:20.620Z,98172.02
2019-04-22T23:40:55.564Z,98168.13
2019-04-22T23:43:34.296Z,98176.04
2019-04-22T23:46:02.396Z,98174.97
2019-04-22T23:48:27.211Z,98172.03
2019-04-22T23:51:04.453Z,98175.06
2019-04-22T23:53:57.973Z,98176.09
2019-04-22T23:56:06.097Z,98165.66
